sensor_id;sensor_type;location;lat;lon;timestamp;pressure;altitude;pressure_sealevel;temperature;humidity
22930;BME280;11630;42.660;23.292;2023-04-20T00:01:46;68754.95;;;11.06;94.66
22930;BME280;11630;42.660;23.292;2023-04-20T00:04:16;68755.48;;;11.06;95.12
22930;BME280;11630;42.660;23.292;2023-04-20T00:06:47;68742.97;;;10.97;95.38
22930;BME280;11630;42.660;23.292;2023-04-20T00:09:19;68745.42;;;11.01;95.63
22930;BME280;11630;42.660;23.292;2023-04-20T00:11:50;68739.16;;;10.96;95.73
22930;BME280;11630;42.660;23.292;2023-04-20T00:14:21;68737.27;;;10.96;96.15
22930;BME280;11630;42.660;23.292;2023-04-20T00:16:51;68734.55;;;10.91;96.50
22930;BME280;11630;42.660;23.292;2023-04-20T00:19:23;68739.16;;;10.91;96.71
22930;BME280;11630;42.660;23.292;2023-04-20T00:21:54;68736.45;;;10.91;97.02
22930;BME280;11630;42.660;23.292;2023-04-20T00:24:25;68739.70;;;10.92;97.23
22930;BME280;11630;42.660;23.292;2023-04-20T00:26:55;68739.98;;;10.93;97.31
22930;BME280;11630;42.660;23.292;2023-04-20T00:29:27;68744.62;;;11.01;96.42
22930;BME280;11630;42.660;23.292;2023-04-20T00:31:58;68730.19;;;10.89;96.93
22930;BME280;11630;42.660;23.292;2023-04-20T00:34:28;68724.76;;;10.87;97.20
22930;BME280;11630;42.660;23.292;2023-04-20T00:36:58;68721.21;;;10.77;98.08
22930;BME280;11630;42.660;23.292;2023-04-20T00:39:29;68730.19;;;10.92;97.98
22930;BME280;11630;42.660;23.292;2023-04-20T00:42:09;68730.45;;;10.88;97.81
22930;BME280;11630;42.660;23.292;2023-04-20T00:44:35;68721.75;;;10.78;97.95
22930;BME280;11630;42.660;23.292;2023-04-20T00:47:06;68722.57;;;10.77;98.47
22930;BME280;11630;42.660;23.292;2023-04-20T00:49:38;68731.55;;;10.89;98.57
22930;BME280;11630;42.660;23.292;2023-04-20T00:52:08;68731.81;;;10.88;98.10
22930;BME280;11630;42.660;23.292;2023-04-20T00:54:39;68736.45;;;10.91;97.75
22930;BME280;11630;42.660;23.292;2023-04-20T00:57:12;68742.17;;;11.00;97.46
22930;BME280;11630;42.660;23.292;2023-04-20T00:59:42;68767.72;;;11.11;97.21
22930;BME280;11630;42.660;23.292;2023-04-20T01:02:13;68766.09;;;11.17;97.53
22930;BME280;11630;42.660;23.292;2023-04-20T01:04:47;68754.66;;;11.04;98.73
22930;BME280;11630;42.660;23.292;2023-04-20T01:07:18;68762.30;;;11.16;98.91
22930;BME280;11630;42.660;23.292;2023-04-20T01:09:49;68762.30;;;11.16;99.16
22930;BME280;11630;42.660;23.292;2023-04-20T01:12:21;68770.72;;;11.15;99.83
22930;BME280;11630;42.660;23.292;2023-04-20T01:14:52;68743.23;;;10.94;100.00
22930;BME280;11630;42.660;23.292;2023-04-20T01:17:22;68741.88;;;10.96;100.00
22930;BME280;11630;42.660;23.292;2023-04-20T01:19:53;68726.38;;;10.81;100.00
22930;BME280;11630;42.660;23.292;2023-04-20T01:22:24;68721.48;;;10.76;100.00
22930;BME280;11630;42.660;23.292;2023-04-20T01:24:55;68742.70;;;10.98;100.00
22930;BME280;11630;42.660;23.292;2023-04-20T01:27:25;68720.13;;;10.76;100.00
22930;BME280;11630;42.660;23.292;2023-04-20T01:29:55;68719.86;;;10.80;100.00
22930;BME280;11630;42.660;23.292;2023-04-20T01:32:26;68699.73;;;10.57;100.00
22930;BME280;11630;42.660;23.292;2023-04-20T01:34:56;68688.05;;;10.52;100.00
22930;BME280;11630;42.660;23.292;2023-04-20T01:37:27;68682.85;;;10.39;100.00
22930;BME280;11630;42.660;23.292;2023-04-20T01:39:58;68703.80;;;10.62;100.00
22930;BME280;11630;42.660;23.292;2023-04-20T01:42:29;68718.23;;;10.76;100.00
22930;BME280;11630;42.660;23.292;2023-04-20T01:44:59;68729.92;;;10.83;100.00
22930;BME280;11630;42.660;23.292;2023-04-20T01:47:31;68733.20;;;10.93;100.00
22930;BME280;11630;42.660;23.292;2023-04-20T01:50:01;68731.02;;;10.86;100.00
22930;BME280;11630;42.660;23.292;2023-04-20T01:52:32;68755.75;;;11.05;100.00
22930;BME280;11630;42.660;23.292;2023-04-20T01:55:03;68754.40;;;11.08;100.00
22930;BME280;11630;42.660;23.292;2023-04-20T01:57:34;68768.00;;;11.15;100.00
22930;BME280;11630;42.660;23.292;2023-04-20T02:00:07;68775.09;;;11.24;100.00
22930;BME280;11630;42.660;23.292;2023-04-20T02:02:38;68753.04;;;11.05;100.00
22930;BME280;11630;42.660;23.292;2023-04-20T02:05:09;68740.25;;;11.00;100.00
22930;BME280;11630;42.660;23.292;2023-04-20T02:07:39;68748.67;;;10.99;100.00
22930;BME280;11630;42.660;23.292;2023-04-20T02:10:11;68751.95;;;10.99;100.00
22930;BME280;11630;42.660;23.292;2023-04-20T02:12:41;68747.34;;;11.06;100.00
22930;BME280;11630;42.660;23.292;2023-04-20T02:15:14;68759.56;;;11.11;100.00
22930;BME280;11630;42.660;23.292;2023-04-20T02:17:47;68762.84;;;11.14;100.00
22930;BME280;11630;42.660;23.292;2023-04-20T02:20:18;68739.70;;;10.89;100.00
22930;BME280;11630;42.660;23.292;2023-04-20T02:22:49;68744.06;;;11.01;100.00
22930;BME280;11630;42.660;23.292;2023-04-20T02:25:20;68753.30;;;11.04;100.00
22930;BME280;11630;42.660;23.292;2023-04-20T02:27:51;68762.02;;;11.17;100.00
22930;BME280;11630;42.660;23.292;2023-04-20T02:30:23;68757.11;;;11.10;100.00
22930;BME280;11630;42.660;23.292;2023-04-20T02:32:54;68779.98;;;11.36;98.87
22930;BME280;11630;42.660;23.292;2023-04-20T02:35:29;68783.78;;;11.32;99.01
22930;BME280;11630;42.660;23.292;2023-04-20T02:38:00;68785.14;;;11.32;98.57
22930;BME280;11630;42.660;23.292;2023-04-20T02:40:30;68764.20;;;11.19;98.13
22930;BME280;11630;42.660;23.292;2023-04-20T02:43:01;68794.41;;;11.43;97.85
22930;BME280;11630;42.660;23.292;2023-04-20T02:45:32;68766.11;;;11.22;97.76
22930;BME280;11630;42.660;23.292;2023-04-20T02:48:04;68785.42;;;11.36;97.71
22930;BME280;11630;42.660;23.292;2023-04-20T02:50:35;68761.48;;;11.17;97.03
22930;BME280;11630;42.660;23.292;2023-04-20T02:53:06;68778.88;;;11.25;96.60
22930;BME280;11630;42.660;23.292;2023-04-20T02:55:36;68724.75;;;10.79;98.33
22930;BME280;11630;42.660;23.292;2023-04-20T02:58:07;68763.66;;;11.16;97.63
22930;BME280;11630;42.660;23.292;2023-04-20T03:00:38;68740.25;;;10.92;98.33
22930;BME280;11630;42.660;23.292;2023-04-20T03:03:09;68722.58;;;10.85;99.99
22930;BME280;11630;42.660;23.292;2023-04-20T03:05:40;68751.41;;;11.09;100.00
22930;BME280;11630;42.660;23.292;2023-04-20T03:08:11;68740.25;;;10.97;100.00
22930;BME280;11630;42.660;23.292;2023-04-20T03:10:42;68744.62;;;11.01;100.00
22930;BME280;11630;42.660;23.292;2023-04-20T03:13:13;68723.11;;;10.80;100.00
22930;BME280;11630;42.660;23.292;2023-04-20T03:15:43;68721.48;;;10.74;100.00
22930;BME280;11630;42.660;23.292;2023-04-20T03:18:14;68713.86;;;10.70;100.00
22930;BME280;11630;42.660;23.292;2023-04-20T03:20:45;68695.09;;;10.56;100.00
22930;BME280;11630;42.660;23.292;2023-04-20T03:23:16;68698.38;;;10.57;100.00
22930;BME280;11630;42.660;23.292;2023-04-20T03:25:47;68694.83;;;10.55;100.00
22930;BME280;11630;42.660;23.292;2023-04-20T03:28:18;68714.40;;;10.68;100.00
22930;BME280;11630;42.660;23.292;2023-04-20T03:30:48;68705.42;;;10.61;100.00
22930;BME280;11630;42.660;23.292;2023-04-20T03:33:19;68710.59;;;10.69;100.00
22930;BME280;11630;42.660;23.292;2023-04-20T03:35:50;68697.84;;;10.61;100.00
22930;BME280;11630;42.660;23.292;2023-04-20T03:38:21;68702.45;;;10.62;100.00
22930;BME280;11630;42.660;23.292;2023-04-20T03:40:52;68702.45;;;10.64;100.00
22930;BME280;11630;42.660;23.292;2023-04-20T03:43:22;68694.01;;;10.55;100.00
22930;BME280;11630;42.660;23.292;2023-04-20T03:45:54;68712.51;;;10.72;100.00
22930;BME280;11630;42.660;23.292;2023-04-20T03:48:25;68731.02;;;10.91;100.00
22930;BME280;11630;42.660;23.292;2023-04-20T03:50:56;68762.02;;;11.12;100.00
22930;BME280;11630;42.660;23.292;2023-04-20T03:53:27;68738.08;;;10.95;100.00
22930;BME280;11630;42.660;23.292;2023-04-20T03:55:57;68734.00;;;10.85;100.00
22930;BME280;11630;42.660;23.292;2023-04-20T03:58:27;68708.14;;;10.63;100.00
22930;BME280;11630;42.660;23.292;2023-04-20T04:01:02;68704.06;;;10.56;100.00
22930;BME280;11630;42.660;23.292;2023-04-20T04:03:34;68689.40;;;10.52;100.00
22930;BME280;11630;42.660;23.292;2023-04-20T04:06:03;68695.36;;;10.53;100.00
22930;BME280;11630;42.660;23.292;2023-04-20T04:08:34;68702.71;;;10.58;100.00
22930;BME280;11630;42.660;23.292;2023-04-20T04:11:07;68692.38;;;10.54;100.00
22930;BME280;11630;42.660;23.292;2023-04-20T04:13:37;68701.09;;;10.62;100.00
22930;BME280;11630;42.660;23.292;2023-04-20T04:16:08;68697.81;;;10.54;100.00
22930;BME280;11630;42.660;23.292;2023-04-20T04:18:43;68695.92;;;10.56;100.00
22930;BME280;11630;42.660;23.292;2023-04-20T04:21:12;68693.73;;;10.49;100.00
22930;BME280;11630;42.660;23.292;2023-04-20T04:23:42;68692.64;;;10.48;100.00
22930;BME280;11630;42.660;23.292;2023-04-20T04:26:13;68702.98;;;10.57;100.00
22930;BME280;11630;42.660;23.292;2023-04-20T04:28:44;68688.58;;;10.53;100.00
22930;BME280;11630;42.660;23.292;2023-04-20T04:31:14;68695.66;;;10.54;100.00
22930;BME280;11630;42.660;23.292;2023-04-20T04:33:46;68690.20;;;10.47;100.00
22930;BME280;11630;42.660;23.292;2023-04-20T04:36:17;68697.55;;;10.55;100.00
22930;BME280;11630;42.660;23.292;2023-04-20T04:38:47;68693.73;;;10.51;100.00
22930;BME280;11630;42.660;23.292;2023-04-20T04:41:18;68698.91;;;10.55;100.00
22930;BME280;11630;42.660;23.292;2023-04-20T04:43:49;68697.55;;;10.55;100.00
22930;BME280;11630;42.660;23.292;2023-04-20T04:46:20;68698.91;;;10.60;100.00
22930;BME280;11630;42.660;23.292;2023-04-20T04:48:50;68692.91;;;10.52;100.00
22930;BME280;11630;42.660;23.292;2023-04-20T04:51:21;68692.38;;;10.49;100.00
22930;BME280;11630;42.660;23.292;2023-04-20T04:53:52;68687.75;;;10.51;100.00
22930;BME280;11630;42.660;23.292;2023-04-20T04:56:23;68676.06;;;10.39;100.00
22930;BME280;11630;42.660;23.292;2023-04-20T04:58:53;68686.39;;;10.43;100.00
22930;BME280;11630;42.660;23.292;2023-04-20T05:01:25;68691.29;;;10.48;100.00
22930;BME280;11630;42.660;23.292;2023-04-20T05:03:56;68689.94;;;10.53;100.00
22930;BME280;11630;42.660;23.292;2023-04-20T05:06:28;68690.47;;;10.48;100.00
22930;BME280;11630;42.660;23.292;2023-04-20T05:08:59;68697.55;;;10.55;100.00
22930;BME280;11630;42.660;23.292;2023-04-20T05:11:29;68717.11;;;10.70;100.00
22930;BME280;11630;42.660;23.292;2023-04-20T05:14:01;68711.42;;;10.69;100.00
22930;BME280;11630;42.660;23.292;2023-04-20T05:16:33;68703.53;;;10.63;100.00
22930;BME280;11630;42.660;23.292;2023-04-20T05:19:04;68718.77;;;10.76;100.00
22930;BME280;11630;42.660;23.292;2023-04-20T05:21:35;68726.65;;;10.82;100.00
22930;BME280;11630;42.660;23.292;2023-04-20T05:24:09;68727.47;;;10.79;100.00
22930;BME280;11630;42.660;23.292;2023-04-20T05:26:39;68723.11;;;10.80;100.00
22930;BME280;11630;42.660;23.292;2023-04-20T05:29:11;68716.31;;;10.71;100.00
22930;BME280;11630;42.660;23.292;2023-04-20T05:31:42;68717.67;;;10.71;100.00
22930;BME280;11630;42.660;23.292;2023-04-20T05:34:12;68730.72;;;10.87;100.00
22930;BME280;11630;42.660;23.292;2023-04-20T05:36:45;68715.49;;;10.73;100.00
22930;BME280;11630;42.660;23.292;2023-04-20T05:39:17;68740.52;;;10.94;100.00
22930;BME280;11630;42.660;23.292;2023-04-20T05:41:48;68727.73;;;10.83;100.00
22930;BME280;11630;42.660;23.292;2023-04-20T05:44:22;68731.28;;;10.85;100.00
22930;BME280;11630;42.660;23.292;2023-04-20T05:46:53;68722.30;;;10.78;100.00
22930;BME280;11630;42.660;23.292;2023-04-20T05:49:25;68735.91;;;10.93;100.00
22930;BME280;11630;42.660;23.292;2023-04-20T05:51:56;68722.57;;;10.77;100.00
22930;BME280;11630;42.660;23.292;2023-04-20T05:54:26;68710.62;;;10.72;100.00
22930;BME280;11630;42.660;23.292;2023-04-20T05:56:57;68719.30;;;10.74;100.00
22930;BME280;11630;42.660;23.292;2023-04-20T05:59:27;68732.91;;;10.84;100.00
22930;BME280;11630;42.660;23.292;2023-04-20T06:01:58;68722.30;;;10.78;100.00
22930;BME280;11630;42.660;23.292;2023-04-20T06:04:29;68717.67;;;10.75;100.00
22930;BME280;11630;42.660;23.292;2023-04-20T06:07:00;68727.47;;;10.82;100.00
22930;BME280;11630;42.660;23.292;2023-04-20T06:09:34;68703.53;;;10.63;100.00
22930;BME280;11630;42.660;23.292;2023-04-20T06:12:08;68715.75;;;10.58;100.00
22930;BME280;11630;42.660;23.292;2023-04-20T06:14:38;68715.22;;;10.67;100.00
22930;BME280;11630;42.660;23.292;2023-04-20T06:17:09;68699.46;;;10.60;100.00
22930;BME280;11630;42.660;23.292;2023-04-20T06:19:41;68696.45;;;10.56;100.00
22930;BME280;11630;42.660;23.292;2023-04-20T06:22:13;68708.41;;;10.60;100.00
22930;BME280;11630;42.660;23.292;2023-04-20T06:24:44;68698.91;;;10.60;100.00
22930;BME280;11630;42.660;23.292;2023-04-20T06:27:15;68703.80;;;10.62;100.00
22930;BME280;11630;42.660;23.292;2023-04-20T06:29:46;68705.43;;;10.66;100.00
22930;BME280;11630;42.660;23.292;2023-04-20T06:32:20;68713.31;;;10.69;100.00
22930;BME280;11630;42.660;23.292;2023-04-20T06:34:50;68715.48;;;10.69;100.00
22930;BME280;11630;42.660;23.292;2023-04-20T06:37:22;68718.23;;;10.76;100.00
22930;BME280;11630;42.660;23.292;2023-04-20T06:39:55;68739.98;;;10.93;100.00
22930;BME280;11630;42.660;23.292;2023-04-20T06:42:25;68728.01;;;10.87;100.00
22930;BME280;11630;42.660;23.292;2023-04-20T06:44:56;68748.14;;;10.98;100.00
22930;BME280;11630;42.660;23.292;2023-04-20T06:47:27;68750.05;;;11.01;100.00
22930;BME280;11630;42.660;23.292;2023-04-20T06:50:02;68750.32;;;11.05;100.00
22930;BME280;11630;42.660;23.292;2023-04-20T06:52:33;68762.02;;;11.15;100.00
22930;BME280;11630;42.660;23.292;2023-04-20T06:55:04;68762.30;;;11.16;100.00
22930;BME280;11630;42.660;23.292;2023-04-20T06:57:35;68748.14;;;11.03;100.00
22930;BME280;11630;42.660;23.292;2023-04-20T07:00:09;68734.82;;;10.92;100.00
22930;BME280;11630;42.660;23.292;2023-04-20T07:02:44;68737.80;;;10.96;100.00
22930;BME280;11630;42.660;23.292;2023-04-20T07:05:16;68754.66;;;11.02;100.00
22930;BME280;11630;42.660;23.292;2023-04-20T07:07:47;68738.07;;;10.90;100.00
22930;BME280;11630;42.660;23.292;2023-04-20T07:10:17;68727.20;;;10.88;100.00
22930;BME280;11630;42.660;23.292;2023-04-20T07:12:49;68716.05;;;10.72;100.00
22930;BME280;11630;42.660;23.292;2023-04-20T07:15:20;68724.20;;;10.84;100.00
22930;BME280;11630;42.660;23.292;2023-04-20T07:17:51;68750.05;;;11.01;100.00
22930;BME280;11630;42.660;23.292;2023-04-20T07:20:21;68739.72;;;10.94;100.00
22930;BME280;11630;42.660;23.292;2023-04-20T07:22:52;68754.66;;;11.04;100.00
22930;BME280;11630;42.660;23.292;2023-04-20T07:25:23;68745.98;;;11.04;100.00
22930;BME280;11630;42.660;23.292;2023-04-20T07:27:54;68764.73;;;11.15;100.00
22930;BME280;11630;42.660;23.292;2023-04-20T07:30:23;68768.56;;;11.23;100.00
22930;BME280;11630;42.660;23.292;2023-04-20T07:32:54;68795.77;;;11.43;100.00
22930;BME280;11630;42.660;23.292;2023-04-20T07:35:25;68831.71;;;11.73;100.00
22930;BME280;11630;42.660;23.292;2023-04-20T07:37:54;68848.06;;;11.96;100.00
22930;BME280;11630;42.660;23.292;2023-04-20T07:40:25;68866.59;;;12.18;100.00
22930;BME280;11630;42.660;23.292;2023-04-20T07:42:55;68859.50;;;12.01;100.00
22930;BME280;11630;42.660;23.292;2023-04-20T07:45:26;68886.45;;;12.29;100.00
22930;BME280;11630;42.660;23.292;2023-04-20T07:47:57;68934.95;;;12.66;99.94
22930;BME280;11630;42.660;23.292;2023-04-20T07:50:29;68943.40;;;12.75;100.00
22930;BME280;11630;42.660;23.292;2023-04-20T07:52:59;68945.58;;;12.82;97.89
22930;BME280;11630;42.660;23.292;2023-04-20T07:55:29;68915.33;;;12.56;96.44
22930;BME280;11630;42.660;23.292;2023-04-20T07:57:59;68953.75;;;12.87;95.83
22930;BME280;11630;42.660;23.292;2023-04-20T08:00:32;68992.48;;;13.20;92.95
22930;BME280;11630;42.660;23.292;2023-04-20T08:03:06;68989.76;;;13.20;92.81
22930;BME280;11630;42.660;23.292;2023-04-20T08:05:38;68995.77;;;13.23;92.94
22930;BME280;11630;42.660;23.292;2023-04-20T08:08:11;68979.66;;;13.17;91.61
22930;BME280;11630;42.660;23.292;2023-04-20T08:10:43;69029.56;;;13.59;90.38
22930;BME280;11630;42.660;23.292;2023-04-20T08:13:16;69031.20;;;13.58;90.84
22930;BME280;11630;42.660;23.292;2023-04-20T08:15:47;69065.83;;;13.90;88.46
22930;BME280;11630;42.660;23.292;2023-04-20T08:18:18;69083.56;;;14.05;88.52
22930;BME280;11630;42.660;23.292;2023-04-20T08:20:49;69096.95;;;14.21;86.75
22930;BME280;11630;42.660;23.292;2023-04-20T08:23:20;69022.20;;;13.53;89.33
22930;BME280;11630;42.660;23.292;2023-04-20T08:25:55;69035.56;;;13.57;90.08
22930;BME280;11630;42.660;23.292;2023-04-20T08:28:25;69013.47;;;13.48;90.83
22930;BME280;11630;42.660;23.292;2023-04-20T08:30:56;68984.59;;;13.11;92.47
22930;BME280;11630;42.660;23.292;2023-04-20T08:33:27;68964.13;;;13.02;93.24
22930;BME280;11630;42.660;23.292;2023-04-20T08:35:58;68923.52;;;12.63;93.95
22930;BME280;11630;42.660;23.292;2023-04-20T08:38:29;68935.50;;;12.69;94.84
22930;BME280;11630;42.660;23.292;2023-04-20T08:41:00;68945.04;;;12.84;94.08
22930;BME280;11630;42.660;23.292;2023-04-20T08:43:31;68940.41;;;12.76;94.26
22930;BME280;11630;42.660;23.292;2023-04-20T08:46:03;68932.23;;;12.74;93.71
22930;BME280;11630;42.660;23.292;2023-04-20T08:48:36;68951.59;;;12.90;94.37
22930;BME280;11630;42.660;23.292;2023-04-20T08:51:06;68972.03;;;13.10;94.18
22930;BME280;11630;42.660;23.292;2023-04-20T08:53:37;69002.56;;;13.33;93.13
22930;BME280;11630;42.660;23.292;2023-04-20T08:56:08;68940.67;;;12.80;93.45
22930;BME280;11630;42.660;23.292;2023-04-20T08:58:38;68912.05;;;12.50;96.00
22930;BME280;11630;42.660;23.292;2023-04-20T09:01:10;68922.70;;;12.56;95.77
22930;BME280;11630;42.660;23.292;2023-04-20T09:03:41;68927.33;;;12.69;95.77
22930;BME280;11630;42.660;23.292;2023-04-20T09:06:16;68909.88;;;12.43;96.75
22930;BME280;11630;42.660;23.292;2023-04-20T09:08:49;68896.82;;;12.41;97.47
22930;BME280;11630;42.660;23.292;2023-04-20T09:11:29;68881.84;;;12.27;98.80
22930;BME280;11630;42.660;23.292;2023-04-20T09:14:04;68874.21;;;12.20;98.51
22930;BME280;11630;42.660;23.292;2023-04-20T09:16:35;68876.38;;;12.22;98.79
22930;BME280;11630;42.660;23.292;2023-04-20T09:19:06;68875.57;;;12.25;99.09
22930;BME280;11630;42.660;23.292;2023-04-20T09:21:46;68878.30;;;12.25;98.06
22930;BME280;11630;42.660;23.292;2023-04-20T09:24:08;68875.28;;;12.21;99.46
22930;BME280;11630;42.660;23.292;2023-04-20T09:26:39;68889.17;;;12.32;99.35
22930;BME280;11630;42.660;23.292;2023-04-20T09:29:22;68894.35;;;12.33;97.11
22930;BME280;11630;42.660;23.292;2023-04-20T09:31:54;68904.43;;;12.43;96.84
22930;BME280;11630;42.660;23.292;2023-04-20T09:34:25;68931.69;;;12.68;96.48
22930;BME280;11630;42.660;23.292;2023-04-20T09:36:56;68957.59;;;12.88;94.83
22930;BME280;11630;42.660;23.292;2023-04-20T09:39:26;68964.67;;;13.02;94.08
22930;BME280;11630;42.660;23.292;2023-04-20T09:41:58;69005.02;;;13.36;92.71
22930;BME280;11630;42.660;23.292;2023-04-20T09:44:29;69027.11;;;13.55;90.21
22930;BME280;11630;42.660;23.292;2023-04-20T09:47:01;69026.29;;;13.56;89.58
22930;BME280;11630;42.660;23.292;2023-04-20T09:49:31;69040.46;;;13.69;88.85
22930;BME280;11630;42.660;23.292;2023-04-20T09:52:03;69068.30;;;13.89;86.71
22930;BME280;11630;42.660;23.292;2023-04-20T09:54:35;69128.34;;;14.49;85.36
22930;BME280;11630;42.660;23.292;2023-04-20T09:57:06;69166.82;;;14.80;82.83
22930;BME280;11630;42.660;23.292;2023-04-20T09:59:41;69146.91;;;14.56;84.55
22930;BME280;11630;42.660;23.292;2023-04-20T10:02:12;69152.36;;;14.68;83.60
22930;BME280;11630;42.660;23.292;2023-04-20T10:04:55;69129.16;;;14.48;83.43
22930;BME280;11630;42.660;23.292;2023-04-20T10:07:28;69135.72;;;14.52;83.53
22930;BME280;11630;42.660;23.292;2023-04-20T10:12:57;69126.42;;;14.46;82.51
22930;BME280;11630;42.660;23.292;2023-04-20T10:15:36;69148.55;;;14.55;82.75
22930;BME280;11630;42.660;23.292;2023-04-20T10:17:55;69171.75;;;14.79;81.54
22930;BME280;11630;42.660;23.292;2023-04-20T10:20:26;69219.55;;;15.22;79.37
22930;BME280;11630;42.660;23.292;2023-04-20T10:23:08;69237.03;;;15.42;78.37
22930;BME280;11630;42.660;23.292;2023-04-20T10:25:40;69210.24;;;15.21;78.00
22930;BME280;11630;42.660;23.292;2023-04-20T10:28:11;69219.25;;;15.23;78.32
22930;BME280;11630;42.660;23.292;2023-04-20T10:30:49;69200.42;;;15.07;78.06
22930;BME280;11630;42.660;23.292;2023-04-20T10:33:19;69220.10;;;15.30;77.10
22930;BME280;11630;42.660;23.292;2023-04-20T10:35:57;69229.09;;;15.41;76.30
22930;BME280;11630;42.660;23.292;2023-04-20T10:38:34;69195.52;;;15.00;77.11
22930;BME280;11630;42.660;23.292;2023-04-20T10:41:10;69165.73;;;14.79;78.21
22930;BME280;11630;42.660;23.292;2023-04-20T10:43:41;69186.74;;;15.02;78.18
22930;BME280;11630;42.660;23.292;2023-04-20T10:46:21;69173.66;;;14.85;78.82
22930;BME280;11630;42.660;23.292;2023-04-20T10:48:59;69158.08;;;14.79;78.28
22930;BME280;11630;42.660;23.292;2023-04-20T10:51:29;69179.65;;;14.98;78.76
22930;BME280;11630;42.660;23.292;2023-04-20T10:54:06;69189.20;;;15.05;77.95
22930;BME280;11630;42.660;23.292;2023-04-20T10:56:44;69240.05;;;15.41;77.75
22930;BME280;11630;42.660;23.292;2023-04-20T10:59:20;69335.38;;;16.42;70.02
22930;BME280;11630;42.660;23.292;2023-04-20T11:01:51;69462.88;;;17.50;64.34
22930;BME280;11630;42.660;23.292;2023-04-20T11:04:31;69448.08;;;17.39;60.85
22930;BME280;11630;42.660;23.292;2023-04-20T11:07:09;69566.39;;;18.37;58.02
22930;BME280;11630;42.660;23.292;2023-04-20T11:09:43;69589.67;;;18.56;57.12
22930;BME280;11630;42.660;23.292;2023-04-20T11:12:13;69561.77;;;18.26;57.82
22930;BME280;11630;42.660;23.292;2023-04-20T11:14:52;69456.02;;;17.45;60.98
22930;BME280;11630;42.660;23.292;2023-04-20T11:17:35;69477.66;;;17.61;61.13
22930;BME280;11630;42.660;23.292;2023-04-20T11:20:11;69428.95;;;17.12;62.67
22930;BME280;11630;42.660;23.292;2023-04-20T11:22:43;69470.25;;;17.56;60.73
22930;BME280;11630;42.660;23.292;2023-04-20T11:25:13;69464.25;;;17.50;60.69
22930;BME280;11630;42.660;23.292;2023-04-20T11:27:44;69441.83;;;17.27;61.70
22930;BME280;11630;42.660;23.292;2023-04-20T11:30:15;69471.09;;;17.55;58.85
22930;BME280;11630;42.660;23.292;2023-04-20T11:32:52;69464.80;;;17.48;58.63
22930;BME280;11630;42.660;23.292;2023-04-20T11:35:18;69354.00;;;16.49;60.74
22930;BME280;11630;42.660;23.292;2023-04-20T11:37:50;69326.38;;;16.25;62.68
22930;BME280;11630;42.660;23.292;2023-04-20T11:40:20;69331.02;;;16.28;62.74
22930;BME280;11630;42.660;23.292;2023-04-20T11:42:50;69277.47;;;15.79;67.26
22930;BME280;11630;42.660;23.292;2023-04-20T11:45:21;69293.04;;;15.92;65.41
22930;BME280;11630;42.660;23.292;2023-04-20T11:47:52;69307.48;;;16.16;65.83
22930;BME280;11630;42.660;23.292;2023-04-20T11:50:24;69319.81;;;16.21;65.60
22930;BME280;11630;42.660;23.292;2023-04-20T11:52:54;69324.19;;;16.23;65.26
22930;BME280;11630;42.660;23.292;2023-04-20T11:55:24;69323.36;;;16.23;64.53
22930;BME280;11630;42.660;23.292;2023-04-20T11:57:56;69299.59;;;16.03;65.25
22930;BME280;11630;42.660;23.292;2023-04-20T12:00:28;69328.83;;;16.26;65.25
22930;BME280;11630;42.660;23.292;2023-04-20T12:02:59;69352.34;;;16.52;63.71
22930;BME280;11630;42.660;23.292;2023-04-20T12:05:30;69329.65;;;16.28;61.89
22930;BME280;11630;42.660;23.292;2023-04-20T12:08:00;69338.69;;;16.40;61.30
22930;BME280;11630;42.660;23.292;2023-04-20T12:10:30;69338.69;;;16.35;61.39
22930;BME280;11630;42.660;23.292;2023-04-20T12:13:01;69302.86;;;16.06;60.14
22930;BME280;11630;42.660;23.292;2023-04-20T12:15:32;69304.50;;;16.05;62.00
22930;BME280;11630;42.660;23.292;2023-04-20T12:18:03;69325.30;;;16.21;62.57
22930;BME280;11630;42.660;23.292;2023-04-20T12:20:35;69317.36;;;16.18;63.90
22930;BME280;11630;42.660;23.292;2023-04-20T12:23:05;69222.55;;;15.31;73.13
22930;BME280;11630;42.660;23.292;2023-04-20T12:25:36;69155.92;;;14.70;86.27
22930;BME280;11630;42.660;23.292;2023-04-20T12:28:06;69124.78;;;14.44;90.91
22930;BME280;11630;42.660;23.292;2023-04-20T12:30:37;69107.32;;;14.28;91.27
22930;BME280;11630;42.660;23.292;2023-04-20T12:33:08;69095.60;;;14.14;92.21
22930;BME280;11630;42.660;23.292;2023-04-20T12:35:38;69067.75;;;13.88;92.95
22930;BME280;11630;42.660;23.292;2023-04-20T12:38:09;69070.74;;;13.92;96.19
22930;BME280;11630;42.660;23.292;2023-04-20T12:40:40;69096.42;;;14.18;97.02
22930;BME280;11630;42.660;23.292;2023-04-20T12:43:11;69079.19;;;14.06;93.55
22930;BME280;11630;42.660;23.292;2023-04-20T12:45:43;69096.69;;;14.20;92.80
22930;BME280;11630;42.660;23.292;2023-04-20T12:48:14;69126.70;;;14.42;91.06
22930;BME280;11630;42.660;23.292;2023-04-20T12:50:46;69181.02;;;14.98;89.64
22930;BME280;11630;42.660;23.292;2023-04-20T12:53:17;69238.66;;;15.46;86.99
22930;BME280;11630;42.660;23.292;2023-04-20T12:55:48;69241.68;;;15.48;86.40
22930;BME280;11630;42.660;23.292;2023-04-20T12:58:18;69288.39;;;15.92;83.17
22930;BME280;11630;42.660;23.292;2023-04-20T13:00:49;69376.97;;;16.72;75.09
22930;BME280;11630;42.660;23.292;2023-04-20T13:03:26;69460.14;;;17.45;68.77
22930;BME280;11630;42.660;23.292;2023-04-20T13:05:58;69499.24;;;17.89;69.58
22930;BME280;11630;42.660;23.292;2023-04-20T13:08:31;69520.09;;;17.96;67.34
22930;BME280;11630;42.660;23.292;2023-04-20T13:11:02;69545.81;;;18.27;64.47